createdAt,value
2023-08-24T00:01:28.331Z,4.30
2023-08-24T00:03:55.108Z,4.32
2023-08-24T00:06:22.110Z,3.87
2023-08-24T00:08:48.699Z,3.90
2023-08-24T00:11:16.812Z,4.05
2023-08-24T00:13:47.542Z,3.80
2023-08-24T00:16:14.203Z,4.38
2023-08-24T00:18:40.797Z,4.00
2023-08-24T00:21:08.764Z,4.40
2023-08-24T00:23:35.357Z,4.38
2023-08-24T00:26:01.894Z,4.35
2023-08-24T00:28:30.350Z,4.23
2023-08-24T00:30:57.106Z,4.00
2023-08-24T00:33:23.850Z,4.03
2023-08-24T00:35:50.582Z,4.13
2023-08-24T00:38:17.230Z,4.30
2023-08-24T00:40:44.854Z,4.28
2023-08-24T00:43:11.737Z,4.10
2023-08-24T00:45:39.782Z,4.57
2023-08-24T00:48:06.823Z,4.70
2023-08-24T00:50:33.615Z,4.55
2023-08-24T00:53:00.448Z,4.50
2023-08-24T00:55:27.814Z,4.40
2023-08-24T00:57:54.418Z,4.22
2023-08-24T01:00:21.986Z,4.20
2023-08-24T01:02:51.336Z,4.88
2023-08-24T01:05:18.472Z,4.10
2023-08-24T01:07:45.078Z,4.60
2023-08-24T01:10:12.492Z,3.90
2023-08-24T01:12:57.184Z,4.50
2023-08-24T01:15:27.974Z,3.90
2023-08-24T01:17:58.607Z,4.20
2023-08-24T01:20:25.354Z,4.05
2023-08-24T01:22:56.052Z,3.72
2023-08-24T01:25:25.670Z,3.88
2023-08-24T01:27:53.735Z,3.80
2023-08-24T01:30:21.106Z,3.70
2023-08-24T01:32:47.663Z,4.60
2023-08-24T01:35:14.344Z,3.83
2023-08-24T01:37:40.959Z,3.63
2023-08-24T01:40:11.137Z,3.95
2023-08-24T01:42:41.151Z,3.40
2023-08-24T01:45:09.573Z,3.83
2023-08-24T01:47:37.779Z,3.40
2023-08-24T01:50:04.998Z,3.50
2023-08-24T01:52:34.557Z,3.50
2023-08-24T01:55:04.128Z,3.63
2023-08-24T01:57:30.806Z,3.30
2023-08-24T01:59:57.464Z,3.70
2023-08-24T02:02:25.939Z,3.80
2023-08-24T02:04:52.743Z,3.45
2023-08-24T02:07:19.301Z,3.60
2023-08-24T02:09:46.946Z,4.25
2023-08-24T02:12:13.540Z,3.80
2023-08-24T02:14:40.357Z,3.10
2023-08-24T02:17:07.069Z,3.50
2023-08-24T02:19:35.284Z,3.40
2023-08-24T02:22:01.928Z,3.30
2023-08-24T02:24:28.575Z,3.50
2023-08-24T02:26:55.305Z,3.40
2023-08-24T02:29:21.849Z,3.38
2023-08-24T02:31:50.413Z,3.33
2023-08-24T02:34:17.156Z,3.60
2023-08-24T02:36:45.068Z,3.30
2023-08-24T02:39:11.715Z,3.58
2023-08-24T02:41:38.273Z,3.60
2023-08-24T02:44:05.044Z,3.50
2023-08-24T02:46:31.632Z,3.35
2023-08-24T02:48:58.492Z,3.67
2023-08-24T02:51:25.295Z,3.60
2023-08-24T02:53:53.552Z,3.40
2023-08-24T02:56:21.218Z,3.50
2023-08-24T02:58:47.744Z,3.60
2023-08-24T03:01:14.340Z,3.80
2023-08-24T03:03:40.923Z,3.30
2023-08-24T03:06:08.476Z,3.70
2023-08-24T03:08:36.040Z,3.35
2023-08-24T03:11:04.112Z,3.60
2023-08-24T03:13:31.246Z,3.67
2023-08-24T03:15:57.984Z,3.50
2023-08-24T03:18:28.598Z,3.70
2023-08-24T03:20:55.163Z,3.80
2023-08-24T03:23:21.724Z,3.35
2023-08-24T03:25:48.325Z,3.38
2023-08-24T03:28:16.293Z,3.78
2023-08-24T03:30:47.132Z,3.70
2023-08-24T03:33:13.818Z,3.65
2023-08-24T03:35:41.170Z,3.50
2023-08-24T03:38:08.371Z,3.25
2023-08-24T03:40:35.010Z,3.60
2023-08-24T03:43:02.152Z,4.05
2023-08-24T03:45:30.550Z,3.63
2023-08-24T03:47:57.505Z,3.30
2023-08-24T03:50:24.304Z,2.93
2023-08-24T03:52:52.159Z,3.40
2023-08-24T03:55:18.908Z,3.40
2023-08-24T03:57:46.376Z,3.80
2023-08-24T04:00:14.039Z,3.80
2023-08-24T04:02:42.450Z,3.58
2023-08-24T04:05:13.093Z,3.55
2023-08-24T04:07:40.980Z,3.47
2023-08-24T04:10:08.290Z,3.40
2023-08-24T04:12:34.968Z,3.20
2023-08-24T04:15:01.640Z,3.40
2023-08-24T04:17:28.580Z,3.28
2023-08-24T04:19:56.542Z,3.10
2023-08-24T04:22:23.100Z,3.30
2023-08-24T04:24:50.057Z,3.60
2023-08-24T04:27:16.683Z,3.53
2023-08-24T04:29:43.827Z,3.60
2023-08-24T04:32:10.426Z,3.70
2023-08-24T04:34:36.960Z,3.90
2023-08-24T04:37:04.897Z,4.00
2023-08-24T04:39:31.647Z,3.97
2023-08-24T04:41:58.356Z,3.78
2023-08-24T04:44:25.611Z,4.10
2023-08-24T04:46:52.290Z,4.00
2023-08-24T04:49:19.003Z,3.80
2023-08-24T04:51:45.632Z,4.10
2023-08-24T04:54:13.709Z,4.30
2023-08-24T04:56:40.351Z,4.20
2023-08-24T04:59:08.935Z,4.80
2023-08-24T05:01:35.758Z,4.60
2023-08-24T05:04:07.613Z,4.72
2023-08-24T05:06:34.259Z,5.63
2023-08-24T05:09:00.860Z,5.03
2023-08-24T05:11:30.487Z,5.05
2023-08-24T05:13:57.319Z,5.50
2023-08-24T05:16:24.303Z,5.50
2023-08-24T05:18:51.137Z,5.15
2023-08-24T05:21:17.968Z,5.37
2023-08-24T05:23:44.563Z,5.20
2023-08-24T05:26:11.146Z,6.07
2023-08-24T05:28:39.121Z,5.68
2023-08-24T05:31:06.057Z,5.60
2023-08-24T05:33:34.388Z,5.95
2023-08-24T05:36:01.204Z,5.50
2023-08-24T05:38:27.986Z,5.55
2023-08-24T05:40:54.726Z,5.30
2023-08-24T05:43:22.923Z,5.38
2023-08-24T05:45:50.977Z,5.38
2023-08-24T05:48:17.885Z,5.30
2023-08-24T05:50:45.325Z,5.30
2023-08-24T05:53:12.113Z,5.32
2023-08-24T05:55:39.306Z,5.23
2023-08-24T05:58:06.188Z,5.22
2023-08-24T06:00:32.884Z,5.70
2023-08-24T06:03:00.938Z,5.63
2023-08-24T06:05:27.792Z,5.35
2023-08-24T06:07:54.444Z,6.00
2023-08-24T06:10:22.673Z,5.47
2023-08-24T06:12:49.394Z,5.60
2023-08-24T06:15:16.546Z,5.47
2023-08-24T06:17:43.777Z,5.43
2023-08-24T06:20:13.725Z,5.40
2023-08-24T06:22:40.540Z,5.63
2023-08-24T06:25:10.113Z,5.17
2023-08-24T06:27:36.999Z,5.70
2023-08-24T06:30:04.668Z,4.88
2023-08-24T06:32:31.731Z,4.85
2023-08-24T06:34:58.417Z,5.30
2023-08-24T06:37:26.779Z,5.30
2023-08-24T06:39:54.392Z,5.05
2023-08-24T06:42:21.015Z,5.15
2023-08-24T06:44:51.092Z,4.40
2023-08-24T06:47:17.957Z,4.40
2023-08-24T06:49:44.609Z,4.60
2023-08-24T06:52:11.769Z,4.28
2023-08-24T06:54:40.778Z,4.53
2023-08-24T06:57:07.336Z,4.30
2023-08-24T06:59:34.073Z,4.70
2023-08-24T07:02:01.012Z,4.73
2023-08-24T07:04:28.242Z,4.18
2023-08-24T07:06:55.249Z,3.78
2023-08-24T07:09:22.144Z,4.38
2023-08-24T07:11:50.403Z,4.40
2023-08-24T07:14:17.071Z,4.20
2023-08-24T07:16:43.951Z,4.10
2023-08-24T07:19:10.739Z,3.67
2023-08-24T07:21:37.767Z,3.60
2023-08-24T07:24:05.490Z,3.45
2023-08-24T07:26:32.526Z,3.60
2023-08-24T07:29:00.873Z,3.13
2023-08-24T07:31:27.704Z,3.25
2023-08-24T07:33:55.244Z,3.50
2023-08-24T07:36:22.771Z,3.03
2023-08-24T07:38:50.145Z,2.88
2023-08-24T07:41:20.774Z,3.13
2023-08-24T07:43:47.399Z,3.00
2023-08-24T07:46:15.631Z,3.10
2023-08-24T07:48:42.298Z,2.50
2023-08-24T07:51:08.989Z,2.50
2023-08-24T07:53:35.665Z,2.80
2023-08-24T07:56:03.044Z,2.55
2023-08-24T07:58:29.910Z,2.60
2023-08-24T08:00:56.566Z,2.80
2023-08-24T08:03:24.724Z,2.65
2023-08-24T08:05:51.432Z,2.50
2023-08-24T08:08:18.164Z,2.70
2023-08-24T08:10:44.781Z,2.90
2023-08-24T08:13:14.149Z,3.17
2023-08-24T08:15:40.848Z,2.95
2023-08-24T08:18:07.573Z,2.63
2023-08-24T08:20:35.860Z,2.42
2023-08-24T08:23:02.433Z,2.42
2023-08-24T08:25:29.370Z,2.42
2023-08-24T08:27:56.033Z,2.53
2023-08-24T08:30:22.648Z,2.60
2023-08-24T08:32:49.978Z,2.45
2023-08-24T08:35:17.129Z,2.30
2023-08-24T08:37:45.136Z,2.40
2023-08-24T08:40:12.485Z,2.40
2023-08-24T08:42:39.673Z,2.20
2023-08-24T08:45:09.828Z,2.40
2023-08-24T08:47:37.322Z,2.20
2023-08-24T15:08:18.012Z,2.73
2023-08-24T15:10:44.624Z,2.30
2023-08-24T15:20:32.405Z,2.10
2023-08-24T15:22:59.605Z,2.57
2023-08-24T15:25:28.275Z,2.37
2023-08-24T15:27:55.379Z,2.80
2023-08-24T15:30:22.385Z,2.23
2023-08-24T15:32:49.171Z,2.23
2023-08-24T15:35:15.906Z,2.80
2023-08-24T15:37:42.877Z,2.47
2023-08-24T15:40:11.631Z,2.70
2023-08-24T15:42:39.742Z,3.00
2023-08-24T15:45:07.128Z,2.55
2023-08-24T15:47:35.337Z,2.10
2023-08-24T15:50:02.012Z,2.70
2023-08-24T15:52:29.486Z,2.30
2023-08-24T15:54:56.366Z,2.53
2023-08-24T16:04:43.747Z,1.90
2023-08-24T16:07:10.691Z,2.50
2023-08-24T16:09:37.268Z,2.20
2023-08-24T16:12:04.126Z,2.63
2023-08-24T16:14:30.737Z,2.40
2023-08-24T16:16:57.527Z,2.00
2023-08-24T16:19:24.662Z,2.03
2023-08-24T16:21:53.163Z,2.80
2023-08-24T16:24:19.761Z,2.80
2023-08-24T16:26:46.356Z,2.40
2023-08-24T16:29:13.105Z,2.72
2023-08-24T16:31:39.991Z,2.42
2023-08-24T16:34:06.674Z,2.63
2023-08-24T16:36:33.565Z,2.60
2023-08-24T16:39:01.469Z,2.50
2023-08-24T16:41:28.491Z,2.55
2023-08-24T16:43:55.089Z,2.50
2023-08-24T16:46:21.917Z,2.47
2023-08-24T16:48:48.555Z,2.35
2023-08-24T16:51:15.168Z,2.67
2023-08-24T16:53:42.147Z,2.20
2023-08-24T16:56:10.326Z,2.15
2023-08-24T16:58:37.492Z,2.45
2023-08-24T17:01:07.891Z,2.00
2023-08-24T17:03:34.553Z,2.30
2023-08-24T17:06:01.384Z,1.90
2023-08-24T17:08:28.225Z,2.40
2023-08-24T17:10:55.075Z,2.47
2023-08-24T17:13:23.055Z,2.20
2023-08-24T17:15:50.623Z,3.50
2023-08-24T17:18:17.346Z,2.55
2023-08-24T17:20:44.337Z,2.38
2023-08-24T17:23:11.033Z,2.60
2023-08-24T17:25:38.980Z,2.42
2023-08-24T17:28:05.825Z,2.40
2023-08-24T17:30:33.905Z,2.80
2023-08-24T17:33:01.103Z,2.00
2023-08-24T17:35:29.300Z,2.28
2023-08-24T17:37:56.371Z,2.20
2023-08-24T17:40:23.226Z,2.33
2023-08-24T17:42:50.423Z,2.10
2023-08-24T17:45:19.984Z,2.30
2023-08-24T17:47:48.103Z,2.30
2023-08-24T17:50:15.188Z,2.00
2023-08-24T17:52:41.881Z,2.00
2023-08-24T17:55:10.039Z,2.37
2023-08-24T17:57:37.713Z,2.10
2023-08-24T18:00:06.387Z,2.65
2023-08-24T18:02:33.592Z,2.25
2023-08-24T18:05:01.950Z,2.30
2023-08-24T18:07:28.721Z,2.40
2023-08-24T18:09:55.520Z,2.58
2023-08-24T18:12:22.914Z,2.53
2023-08-24T18:14:49.511Z,2.50
2023-08-24T18:17:16.118Z,2.58
2023-08-24T18:19:43.094Z,2.70
2023-08-24T18:22:11.061Z,2.65
2023-08-24T18:24:37.666Z,2.42
2023-08-24T18:27:04.228Z,2.70
2023-08-24T18:29:30.880Z,2.30
2023-08-24T18:31:57.468Z,2.70
2023-08-24T18:34:26.167Z,2.88
2023-08-24T18:36:53.100Z,2.90
2023-08-24T18:39:21.017Z,2.67
2023-08-24T18:41:49.486Z,2.60
2023-08-24T18:44:16.305Z,2.67
2023-08-24T18:46:42.907Z,3.10
2023-08-24T18:49:09.665Z,2.50
2023-08-24T18:51:36.249Z,2.47
2023-08-24T18:54:03.315Z,2.80
2023-08-24T18:56:31.257Z,2.90
2023-08-24T18:58:58.736Z,2.50
2023-08-24T19:01:25.295Z,2.40
2023-08-24T19:03:53.966Z,2.55
2023-08-24T19:06:27.515Z,2.70
2023-08-24T19:08:57.539Z,3.00
2023-08-24T19:11:24.078Z,2.80
2023-08-24T19:13:53.253Z,2.90
2023-08-24T19:16:19.977Z,3.25
2023-08-24T19:18:46.778Z,3.10
2023-08-24T19:21:13.798Z,3.05
2023-08-24T19:23:41.211Z,2.90
2023-08-24T19:26:07.879Z,2.92
2023-08-24T19:28:34.570Z,2.90
2023-08-24T19:31:02.659Z,3.00
2023-08-24T19:33:32.079Z,3.15
2023-08-24T19:35:59.779Z,3.90
2023-08-24T19:38:26.674Z,3.50
2023-08-24T19:40:53.248Z,3.00
2023-08-24T19:43:20.040Z,3.00
2023-08-24T19:45:47.082Z,3.50
2023-08-24T19:48:15.098Z,3.00
2023-08-24T19:50:41.811Z,3.50
2023-08-24T19:53:08.436Z,3.00
2023-08-24T19:55:35.042Z,3.10
2023-08-24T19:58:01.699Z,3.58
2023-08-24T20:00:28.383Z,3.30
2023-08-24T20:02:56.946Z,3.20
2023-08-24T20:05:25.215Z,3.15
2023-08-24T20:07:52.368Z,3.50
2023-08-24T20:10:25.230Z,3.70
2023-08-24T20:12:52.340Z,3.38
2023-08-24T20:15:19.510Z,3.03
2023-08-24T20:17:47.640Z,3.63
2023-08-24T20:20:16.378Z,3.42
2023-08-24T20:22:45.133Z,3.30
2023-08-24T20:25:12.236Z,3.40
2023-08-24T20:27:39.066Z,3.70
2023-08-24T20:30:06.766Z,3.60
2023-08-24T20:32:34.178Z,3.47
2023-08-24T20:35:01.393Z,3.83
2023-08-24T20:37:28.437Z,3.38
2023-08-24T20:40:00.003Z,3.50
2023-08-24T20:42:28.390Z,3.22
2023-08-24T20:44:55.588Z,3.30
2023-08-24T20:47:22.567Z,3.40
2023-08-24T20:49:51.133Z,3.90
2023-08-24T20:52:18.345Z,4.15
2023-08-24T20:54:45.164Z,3.60
2023-08-24T20:57:13.121Z,4.57
2023-08-24T20:59:40.797Z,4.68
2023-08-24T21:02:07.776Z,4.35
2023-08-24T21:04:34.903Z,4.20
2023-08-24T21:07:01.882Z,4.10
2023-08-24T21:09:28.543Z,4.40
2023-08-24T21:11:55.374Z,3.85
2023-08-24T21:14:23.565Z,4.23
2023-08-24T21:16:50.679Z,4.53
2023-08-24T21:19:18.189Z,4.20
2023-08-24T21:21:44.996Z,4.78
2023-08-24T21:24:11.570Z,4.32
2023-08-24T21:26:38.210Z,4.43
2023-08-24T21:29:06.164Z,3.90
2023-08-24T21:31:34.214Z,4.35
2023-08-24T21:34:01.568Z,4.30
2023-08-24T21:36:28.177Z,4.20
2023-08-24T21:38:55.752Z,4.72
2023-08-24T21:41:22.347Z,3.80
2023-08-24T21:43:49.109Z,4.20
2023-08-24T21:46:15.929Z,3.75
2023-08-24T21:48:43.991Z,3.55
2023-08-24T21:51:10.568Z,4.00
2023-08-24T21:53:38.827Z,3.95
2023-08-24T21:56:05.518Z,3.80
2023-08-24T21:58:32.767Z,4.00
2023-08-24T22:01:00.930Z,4.07
2023-08-24T22:03:27.716Z,3.90
2023-08-24T22:05:55.852Z,4.10
2023-08-24T22:08:22.467Z,4.95
2023-08-24T22:10:49.286Z,4.57
2023-08-24T22:13:15.817Z,4.18
2023-08-24T22:15:42.861Z,4.10
2023-08-24T22:18:09.607Z,4.30
2023-08-24T22:20:36.175Z,4.03
2023-08-24T22:23:04.556Z,4.20
2023-08-24T22:25:31.157Z,4.43
2023-08-24T22:27:57.683Z,4.55
2023-08-24T22:30:24.266Z,4.40
2023-08-24T22:32:50.917Z,4.70
2023-08-24T22:35:17.648Z,4.72
2023-08-24T22:37:44.191Z,4.40
2023-08-24T22:40:12.471Z,4.90
2023-08-24T22:42:39.062Z,4.40
2023-08-24T22:45:06.154Z,4.30
2023-08-24T22:47:33.778Z,4.82
2023-08-24T22:50:01.488Z,5.47
2023-08-24T22:52:28.061Z,4.30
2023-08-24T22:54:54.708Z,4.70
2023-08-24T22:57:22.675Z,4.90
2023-08-24T22:59:49.300Z,5.40
2023-08-24T23:02:15.803Z,5.00
2023-08-24T23:04:42.388Z,4.90
2023-08-24T23:07:09.806Z,4.90
2023-08-24T23:09:37.042Z,4.80
2023-08-24T23:12:03.882Z,4.65
2023-08-24T23:14:35.018Z,4.47
2023-08-24T23:17:01.904Z,4.60
2023-08-24T23:19:28.392Z,4.30
2023-08-24T23:21:54.896Z,5.10
2023-08-24T23:24:44.282Z,4.93
2023-08-24T23:27:09.259Z,4.32
2023-08-24T23:29:37.945Z,4.35
2023-08-24T23:32:04.986Z,4.03
2023-08-24T23:34:31.709Z,4.40
2023-08-24T23:36:59.625Z,4.45
2023-08-24T23:39:26.900Z,4.10
2023-08-24T23:41:53.485Z,4.78
2023-08-24T23:44:22.147Z,4.80
2023-08-24T23:46:50.141Z,4.70
2023-08-24T23:49:16.735Z,4.67
2023-08-24T23:51:43.319Z,4.90
2023-08-24T23:54:09.903Z,4.90
2023-08-24T23:56:37.459Z,4.47
2023-08-24T23:59:04.017Z,4.60
